Idaho City, Idaho
Current Conditions -  °F | °C
As of 2:53 AM on Thursday 18 Dec 2014 (Local Time) from KBOI Reporting Station
Broken Clouds Broken Clouds  
Wind Chill: 31°   Ceiling: 8000
Heat Index: 37°   Visibility: 10mi
Dew Point: 31°   Wind: 8mph
Humidity: 79%   Direction: 190°S
Pressure: 30.04"   Gusts: NA
Location:  43.83°N, 115.83°W
Report Text: KBOI 180953Z 19007KT 10SM BKN080 03/M01 A3004 RMK AO2 SLP180 T00281006
Loading
Personal Weather Stations






























Interactive Weather Map New forecast layout! Learn more

10-Day Weather Forecast

Advertisements
Track Severe Weather on mobile